sensor_id;sensor_type;location;lat;lon;timestamp;temperature;humidity
11934;DHT22;6026;48.784;9.198;2023-06-10T00:00:38;19.20;99.90
11934;DHT22;6026;48.784;9.198;2023-06-10T00:03:06;19.20;99.90
11934;DHT22;6026;48.784;9.198;2023-06-10T00:05:32;19.20;99.90
11934;DHT22;6026;48.784;9.198;2023-06-10T00:08:00;19.10;99.90
11934;DHT22;6026;48.784;9.198;2023-06-10T00:10:27;19.10;99.90
11934;DHT22;6026;48.784;9.198;2023-06-10T00:12:52;19.10;99.90
11934;DHT22;6026;48.784;9.198;2023-06-10T00:15:18;19.10;99.90
11934;DHT22;6026;48.784;9.198;2023-06-10T00:17:44;19.00;99.90
11934;DHT22;6026;48.784;9.198;2023-06-10T00:20:10;19.00;99.90
11934;DHT22;6026;48.784;9.198;2023-06-10T00:22:38;19.00;99.90
11934;DHT22;6026;48.784;9.198;2023-06-10T00:25:05;18.90;99.90
11934;DHT22;6026;48.784;9.198;2023-06-10T00:27:31;18.90;99.90
11934;DHT22;6026;48.784;9.198;2023-06-10T00:30:02;18.90;99.90
11934;DHT22;6026;48.784;9.198;2023-06-10T00:32:30;18.80;99.90
11934;DHT22;6026;48.784;9.198;2023-06-10T00:34:56;18.80;99.90
11934;DHT22;6026;48.784;9.198;2023-06-10T00:37:21;18.80;99.90
11934;DHT22;6026;48.784;9.198;2023-06-10T00:39:47;18.70;99.90
11934;DHT22;6026;48.784;9.198;2023-06-10T00:42:13;18.70;99.90
11934;DHT22;6026;48.784;9.198;2023-06-10T00:44:39;18.60;99.90
11934;DHT22;6026;48.784;9.198;2023-06-10T00:47:05;18.70;99.90
11934;DHT22;6026;48.784;9.198;2023-06-10T00:49:31;18.60;99.90
11934;DHT22;6026;48.784;9.198;2023-06-10T00:51:57;18.50;99.90
11934;DHT22;6026;48.784;9.198;2023-06-10T00:54:23;18.50;99.90
11934;DHT22;6026;48.784;9.198;2023-06-10T00:56:49;18.50;99.90
11934;DHT22;6026;48.784;9.198;2023-06-10T00:59:15;18.40;99.90
11934;DHT22;6026;48.784;9.198;2023-06-10T01:01:42;18.30;99.90
11934;DHT22;6026;48.784;9.198;2023-06-10T01:04:08;18.30;99.90
11934;DHT22;6026;48.784;9.198;2023-06-10T01:09:59;18.30;99.90
11934;DHT22;6026;48.784;9.198;2023-06-10T01:12:47;18.30;99.90
11934;DHT22;6026;48.784;9.198;2023-06-10T01:15:16;18.20;99.90
11934;DHT22;6026;48.784;9.198;2023-06-10T01:17:59;18.20;99.90
11934;DHT22;6026;48.784;9.198;2023-06-10T01:20:27;18.20;99.90
11934;DHT22;6026;48.784;9.198;2023-06-10T01:22:56;18.20;99.90
11934;DHT22;6026;48.784;9.198;2023-06-10T01:25:23;18.10;99.90
11934;DHT22;6026;48.784;9.198;2023-06-10T01:28:11;18.10;99.90
11934;DHT22;6026;48.784;9.198;2023-06-10T01:30:54;18.10;99.90
11934;DHT22;6026;48.784;9.198;2023-06-10T01:33:35;18.00;99.90
11934;DHT22;6026;48.784;9.198;2023-06-10T01:36:02;18.00;99.90
11934;DHT22;6026;48.784;9.198;2023-06-10T01:38:32;18.00;99.90
11934;DHT22;6026;48.784;9.198;2023-06-10T01:41:00;18.00;99.90
11934;DHT22;6026;48.784;9.198;2023-06-10T01:43:25;17.90;99.90
11934;DHT22;6026;48.784;9.198;2023-06-10T01:45:51;17.90;99.90
11934;DHT22;6026;48.784;9.198;2023-06-10T01:48:17;17.80;99.90
11934;DHT22;6026;48.784;9.198;2023-06-10T01:50:42;17.80;99.90
11934;DHT22;6026;48.784;9.198;2023-06-10T01:53:09;17.80;99.90
11934;DHT22;6026;48.784;9.198;2023-06-10T01:55:35;17.80;99.90
11934;DHT22;6026;48.784;9.198;2023-06-10T01:58:00;17.80;99.90
11934;DHT22;6026;48.784;9.198;2023-06-10T02:00:26;17.80;99.90
11934;DHT22;6026;48.784;9.198;2023-06-10T02:02:51;17.70;99.90
11934;DHT22;6026;48.784;9.198;2023-06-10T02:05:17;17.70;99.90
11934;DHT22;6026;48.784;9.198;2023-06-10T02:07:43;17.80;99.90
11934;DHT22;6026;48.784;9.198;2023-06-10T02:10:09;17.70;99.90
11934;DHT22;6026;48.784;9.198;2023-06-10T02:12:35;17.70;99.90
11934;DHT22;6026;48.784;9.198;2023-06-10T02:15:00;17.70;99.90
11934;DHT22;6026;48.784;9.198;2023-06-10T02:17:26;17.70;99.90
11934;DHT22;6026;48.784;9.198;2023-06-10T02:19:51;17.70;99.90
11934;DHT22;6026;48.784;9.198;2023-06-10T02:22:23;17.70;99.90
11934;DHT22;6026;48.784;9.198;2023-06-10T02:24:49;17.60;99.90
11934;DHT22;6026;48.784;9.198;2023-06-10T02:27:16;17.70;99.90
11934;DHT22;6026;48.784;9.198;2023-06-10T02:29:41;17.60;99.90
11934;DHT22;6026;48.784;9.198;2023-06-10T02:32:08;17.60;99.90
11934;DHT22;6026;48.784;9.198;2023-06-10T02:34:33;17.60;99.90
11934;DHT22;6026;48.784;9.198;2023-06-10T02:37:00;17.50;99.90
11934;DHT22;6026;48.784;9.198;2023-06-10T02:39:26;17.50;99.90
11934;DHT22;6026;48.784;9.198;2023-06-10T02:41:51;17.50;99.90
11934;DHT22;6026;48.784;9.198;2023-06-10T02:44:18;17.50;99.90
11934;DHT22;6026;48.784;9.198;2023-06-10T02:46:44;17.50;99.90
11934;DHT22;6026;48.784;9.198;2023-06-10T02:49:11;17.40;99.90
11934;DHT22;6026;48.784;9.198;2023-06-10T02:51:36;17.40;99.90
11934;DHT22;6026;48.784;9.198;2023-06-10T02:54:02;17.30;99.90
11934;DHT22;6026;48.784;9.198;2023-06-10T02:56:27;17.40;99.90
11934;DHT22;6026;48.784;9.198;2023-06-10T02:58:53;17.30;99.90
11934;DHT22;6026;48.784;9.198;2023-06-10T03:01:19;17.40;99.90
11934;DHT22;6026;48.784;9.198;2023-06-10T03:03:45;17.30;99.90
11934;DHT22;6026;48.784;9.198;2023-06-10T03:06:12;17.30;99.90
11934;DHT22;6026;48.784;9.198;2023-06-10T03:08:38;17.30;99.90
11934;DHT22;6026;48.784;9.198;2023-06-10T03:11:03;17.30;99.90
11934;DHT22;6026;48.784;9.198;2023-06-10T03:13:29;17.20;99.90
11934;DHT22;6026;48.784;9.198;2023-06-10T03:15:55;17.20;99.90
11934;DHT22;6026;48.784;9.198;2023-06-10T03:18:20;17.20;99.90
11934;DHT22;6026;48.784;9.198;2023-06-10T03:20:48;17.20;99.90
11934;DHT22;6026;48.784;9.198;2023-06-10T03:23:13;17.20;99.90
11934;DHT22;6026;48.784;9.198;2023-06-10T03:25:41;17.20;99.90
11934;DHT22;6026;48.784;9.198;2023-06-10T03:28:06;17.20;99.90
11934;DHT22;6026;48.784;9.198;2023-06-10T03:30:32;17.10;99.90
11934;DHT22;6026;48.784;9.198;2023-06-10T03:32:57;17.10;99.90
11934;DHT22;6026;48.784;9.198;2023-06-10T03:35:23;17.00;99.90
11934;DHT22;6026;48.784;9.198;2023-06-10T03:37:48;17.00;99.90
11934;DHT22;6026;48.784;9.198;2023-06-10T03:40:14;17.00;99.90
11934;DHT22;6026;48.784;9.198;2023-06-10T03:42:40;17.00;99.90
11934;DHT22;6026;48.784;9.198;2023-06-10T03:45:06;17.00;99.90
11934;DHT22;6026;48.784;9.198;2023-06-10T03:47:35;17.00;99.90
11934;DHT22;6026;48.784;9.198;2023-06-10T03:50:01;17.00;99.90
11934;DHT22;6026;48.784;9.198;2023-06-10T03:52:27;17.00;99.90
11934;DHT22;6026;48.784;9.198;2023-06-10T03:54:52;17.00;99.90
11934;DHT22;6026;48.784;9.198;2023-06-10T03:57:18;17.00;99.90
11934;DHT22;6026;48.784;9.198;2023-06-10T03:59:44;17.00;99.90
11934;DHT22;6026;48.784;9.198;2023-06-10T04:02:09;17.00;99.90
11934;DHT22;6026;48.784;9.198;2023-06-10T04:04:35;17.00;99.90
11934;DHT22;6026;48.784;9.198;2023-06-10T04:07:01;17.00;99.90
11934;DHT22;6026;48.784;9.198;2023-06-10T04:09:27;17.00;99.90
11934;DHT22;6026;48.784;9.198;2023-06-10T04:11:52;17.00;99.90
11934;DHT22;6026;48.784;9.198;2023-06-10T04:14:18;17.00;99.90
11934;DHT22;6026;48.784;9.198;2023-06-10T04:16:43;17.10;99.90
11934;DHT22;6026;48.784;9.198;2023-06-10T04:19:09;17.10;99.90
11934;DHT22;6026;48.784;9.198;2023-06-10T04:21:34;17.00;99.90
11934;DHT22;6026;48.784;9.198;2023-06-10T04:24:01;17.10;99.90
11934;DHT22;6026;48.784;9.198;2023-06-10T04:26:27;17.10;99.90
11934;DHT22;6026;48.784;9.198;2023-06-10T04:28:53;17.20;99.90
11934;DHT22;6026;48.784;9.198;2023-06-10T04:31:18;17.20;99.90
11934;DHT22;6026;48.784;9.198;2023-06-10T04:33:44;17.30;99.90
11934;DHT22;6026;48.784;9.198;2023-06-10T04:36:10;17.30;99.90
11934;DHT22;6026;48.784;9.198;2023-06-10T04:38:36;17.30;99.90
11934;DHT22;6026;48.784;9.198;2023-06-10T04:41:01;17.30;99.90
11934;DHT22;6026;48.784;9.198;2023-06-10T04:43:27;17.30;99.90
11934;DHT22;6026;48.784;9.198;2023-06-10T04:45:56;17.40;99.90
11934;DHT22;6026;48.784;9.198;2023-06-10T04:48:21;17.40;99.90
11934;DHT22;6026;48.784;9.198;2023-06-10T04:50:49;17.50;99.90
11934;DHT22;6026;48.784;9.198;2023-06-10T04:53:15;17.50;99.90
11934;DHT22;6026;48.784;9.198;2023-06-10T04:55:41;17.60;99.90
11934;DHT22;6026;48.784;9.198;2023-06-10T04:58:07;17.60;99.90
11934;DHT22;6026;48.784;9.198;2023-06-10T05:00:33;17.60;99.90
11934;DHT22;6026;48.784;9.198;2023-06-10T05:02:58;17.70;99.90
11934;DHT22;6026;48.784;9.198;2023-06-10T05:05:24;17.80;99.90
11934;DHT22;6026;48.784;9.198;2023-06-10T05:07:49;17.80;99.90
11934;DHT22;6026;48.784;9.198;2023-06-10T05:10:15;17.90;99.90
11934;DHT22;6026;48.784;9.198;2023-06-10T05:12:41;17.90;99.90
11934;DHT22;6026;48.784;9.198;2023-06-10T05:15:07;18.00;99.90
11934;DHT22;6026;48.784;9.198;2023-06-10T05:17:33;18.00;99.90
11934;DHT22;6026;48.784;9.198;2023-06-10T05:20:00;18.00;99.90
11934;DHT22;6026;48.784;9.198;2023-06-10T05:22:26;18.10;99.90
11934;DHT22;6026;48.784;9.198;2023-06-10T05:24:53;18.10;99.90
11934;DHT22;6026;48.784;9.198;2023-06-10T05:27:19;18.20;99.90
11934;DHT22;6026;48.784;9.198;2023-06-10T05:29:44;18.20;99.90
11934;DHT22;6026;48.784;9.198;2023-06-10T05:32:11;18.30;99.90
11934;DHT22;6026;48.784;9.198;2023-06-10T05:34:36;18.40;99.90
11934;DHT22;6026;48.784;9.198;2023-06-10T05:37:02;18.40;99.90
11934;DHT22;6026;48.784;9.198;2023-06-10T05:39:28;18.50;99.90
11934;DHT22;6026;48.784;9.198;2023-06-10T05:41:54;18.50;99.90
11934;DHT22;6026;48.784;9.198;2023-06-10T05:44:19;18.60;99.90
11934;DHT22;6026;48.784;9.198;2023-06-10T05:46:45;18.70;99.90
11934;DHT22;6026;48.784;9.198;2023-06-10T05:49:11;18.70;99.90
11934;DHT22;6026;48.784;9.198;2023-06-10T05:51:36;18.80;99.90
11934;DHT22;6026;48.784;9.198;2023-06-10T05:54:02;18.90;99.90
11934;DHT22;6026;48.784;9.198;2023-06-10T05:56:28;18.90;99.90
11934;DHT22;6026;48.784;9.198;2023-06-10T05:58:54;19.00;99.90
11934;DHT22;6026;48.784;9.198;2023-06-10T06:01:19;19.10;99.90
11934;DHT22;6026;48.784;9.198;2023-06-10T06:03:45;19.20;99.90
11934;DHT22;6026;48.784;9.198;2023-06-10T06:06:11;19.30;99.90
11934;DHT22;6026;48.784;9.198;2023-06-10T06:08:36;19.30;99.90
11934;DHT22;6026;48.784;9.198;2023-06-10T06:11:02;19.40;99.90
11934;DHT22;6026;48.784;9.198;2023-06-10T06:13:27;19.60;99.90
11934;DHT22;6026;48.784;9.198;2023-06-10T06:15:53;20.40;99.90
11934;DHT22;6026;48.784;9.198;2023-06-10T06:18:18;21.80;99.90
11934;DHT22;6026;48.784;9.198;2023-06-10T06:20:44;23.10;99.90
11934;DHT22;6026;48.784;9.198;2023-06-10T06:23:10;24.40;99.90
11934;DHT22;6026;48.784;9.198;2023-06-10T06:25:36;25.30;99.90
11934;DHT22;6026;48.784;9.198;2023-06-10T06:28:07;26.10;99.90
11934;DHT22;6026;48.784;9.198;2023-06-10T06:30:34;26.90;99.90
11934;DHT22;6026;48.784;9.198;2023-06-10T06:33:00;27.60;99.90
11934;DHT22;6026;48.784;9.198;2023-06-10T06:35:26;27.80;99.90
11934;DHT22;6026;48.784;9.198;2023-06-10T06:37:51;28.30;99.90
11934;DHT22;6026;48.784;9.198;2023-06-10T06:40:17;28.50;99.90
11934;DHT22;6026;48.784;9.198;2023-06-10T06:42:42;28.70;99.90
11934;DHT22;6026;48.784;9.198;2023-06-10T06:45:08;28.60;99.90
11934;DHT22;6026;48.784;9.198;2023-06-10T06:47:34;28.70;99.90
11934;DHT22;6026;48.784;9.198;2023-06-10T06:49:59;28.80;99.90
11934;DHT22;6026;48.784;9.198;2023-06-10T06:52:25;28.70;99.90
11934;DHT22;6026;48.784;9.198;2023-06-10T06:54:51;28.70;99.90
11934;DHT22;6026;48.784;9.198;2023-06-10T06:57:16;28.80;99.90
11934;DHT22;6026;48.784;9.198;2023-06-10T06:59:42;28.80;99.90
11934;DHT22;6026;48.784;9.198;2023-06-10T07:02:07;28.70;99.90
11934;DHT22;6026;48.784;9.198;2023-06-10T07:04:33;28.80;99.90
11934;DHT22;6026;48.784;9.198;2023-06-10T07:06:59;28.70;99.90
11934;DHT22;6026;48.784;9.198;2023-06-10T07:09:24;28.40;99.90
11934;DHT22;6026;48.784;9.198;2023-06-10T07:11:50;28.50;99.90
11934;DHT22;6026;48.784;9.198;2023-06-10T07:14:15;28.60;99.90
11934;DHT22;6026;48.784;9.198;2023-06-10T07:16:41;28.40;99.90
11934;DHT22;6026;48.784;9.198;2023-06-10T07:19:06;28.50;99.90
11934;DHT22;6026;48.784;9.198;2023-06-10T07:21:32;28.30;99.90
11934;DHT22;6026;48.784;9.198;2023-06-10T07:23:59;28.30;99.90
11934;DHT22;6026;48.784;9.198;2023-06-10T07:26:25;28.30;99.90
11934;DHT22;6026;48.784;9.198;2023-06-10T07:28:51;28.30;99.90
11934;DHT22;6026;48.784;9.198;2023-06-10T07:31:17;28.30;99.90
11934;DHT22;6026;48.784;9.198;2023-06-10T07:33:43;28.30;99.90
11934;DHT22;6026;48.784;9.198;2023-06-10T07:36:09;28.30;99.90
11934;DHT22;6026;48.784;9.198;2023-06-10T07:38:35;28.10;99.90
11934;DHT22;6026;48.784;9.198;2023-06-10T07:41:01;28.20;99.90
11934;DHT22;6026;48.784;9.198;2023-06-10T07:43:26;28.20;99.90
11934;DHT22;6026;48.784;9.198;2023-06-10T07:45:52;28.30;99.90
11934;DHT22;6026;48.784;9.198;2023-06-10T07:48:18;28.40;99.90
11934;DHT22;6026;48.784;9.198;2023-06-10T07:50:43;28.40;99.90
11934;DHT22;6026;48.784;9.198;2023-06-10T07:53:09;28.70;99.90
11934;DHT22;6026;48.784;9.198;2023-06-10T07:55:35;28.70;99.90
11934;DHT22;6026;48.784;9.198;2023-06-10T07:58:00;28.70;99.90
11934;DHT22;6026;48.784;9.198;2023-06-10T08:00:26;28.70;99.90
11934;DHT22;6026;48.784;9.198;2023-06-10T08:02:51;28.60;99.90
11934;DHT22;6026;48.784;9.198;2023-06-10T08:05:17;28.40;99.90
11934;DHT22;6026;48.784;9.198;2023-06-10T08:07:44;28.30;99.90
11934;DHT22;6026;48.784;9.198;2023-06-10T08:10:10;28.30;99.90
11934;DHT22;6026;48.784;9.198;2023-06-10T08:12:36;28.50;99.90
11934;DHT22;6026;48.784;9.198;2023-06-10T08:15:02;28.60;99.90
11934;DHT22;6026;48.784;9.198;2023-06-10T08:17:29;28.70;99.90
11934;DHT22;6026;48.784;9.198;2023-06-10T08:19:55;28.80;99.90
11934;DHT22;6026;48.784;9.198;2023-06-10T08:22:21;28.90;99.90
11934;DHT22;6026;48.784;9.198;2023-06-10T08:24:46;28.80;99.90
11934;DHT22;6026;48.784;9.198;2023-06-10T08:27:12;29.00;99.90
11934;DHT22;6026;48.784;9.198;2023-06-10T08:29:39;29.10;99.90
11934;DHT22;6026;48.784;9.198;2023-06-10T08:32:04;28.90;99.90
11934;DHT22;6026;48.784;9.198;2023-06-10T08:34:32;29.10;99.90
11934;DHT22;6026;48.784;9.198;2023-06-10T08:36:58;29.20;99.90
11934;DHT22;6026;48.784;9.198;2023-06-10T08:39:23;29.20;99.90
11934;DHT22;6026;48.784;9.198;2023-06-10T08:44:38;29.30;99.90
11934;DHT22;6026;48.784;9.198;2023-06-10T08:47:15;29.40;99.90
11934;DHT22;6026;48.784;9.198;2023-06-10T08:49:47;29.50;99.90
11934;DHT22;6026;48.784;9.198;2023-06-10T08:52:20;29.50;99.90
11934;DHT22;6026;48.784;9.198;2023-06-10T08:55:15;29.60;99.90
11934;DHT22;6026;48.784;9.198;2023-06-10T08:57:45;29.70;99.90
11934;DHT22;6026;48.784;9.198;2023-06-10T09:00:12;29.70;99.90
11934;DHT22;6026;48.784;9.198;2023-06-10T09:02:38;29.70;99.90
11934;DHT22;6026;48.784;9.198;2023-06-10T09:05:05;29.80;99.90
11934;DHT22;6026;48.784;9.198;2023-06-10T09:07:31;29.80;99.90
11934;DHT22;6026;48.784;9.198;2023-06-10T09:09:57;30.20;99.90
11934;DHT22;6026;48.784;9.198;2023-06-10T09:12:24;30.10;99.90
11934;DHT22;6026;48.784;9.198;2023-06-10T09:14:50;30.00;99.90
11934;DHT22;6026;48.784;9.198;2023-06-10T09:17:16;29.90;99.90
11934;DHT22;6026;48.784;9.198;2023-06-10T09:19:42;30.00;99.90
11934;DHT22;6026;48.784;9.198;2023-06-10T09:22:09;30.00;99.90
11934;DHT22;6026;48.784;9.198;2023-06-10T09:24:35;29.80;99.90
11934;DHT22;6026;48.784;9.198;2023-06-10T09:27:08;29.60;99.90
11934;DHT22;6026;48.784;9.198;2023-06-10T09:29:54;29.80;99.90
11934;DHT22;6026;48.784;9.198;2023-06-10T09:32:20;30.20;99.90
11934;DHT22;6026;48.784;9.198;2023-06-10T09:34:46;30.20;99.90
11934;DHT22;6026;48.784;9.198;2023-06-10T09:37:12;30.30;99.90
11934;DHT22;6026;48.784;9.198;2023-06-10T09:39:39;30.50;99.90
11934;DHT22;6026;48.784;9.198;2023-06-10T09:42:19;30.60;99.90
11934;DHT22;6026;48.784;9.198;2023-06-10T09:44:51;30.80;99.90
11934;DHT22;6026;48.784;9.198;2023-06-10T09:47:23;30.90;99.90
11934;DHT22;6026;48.784;9.198;2023-06-10T09:49:49;31.10;99.90
11934;DHT22;6026;48.784;9.198;2023-06-10T09:52:24;31.30;99.90
11934;DHT22;6026;48.784;9.198;2023-06-10T09:54:54;31.20;99.90
11934;DHT22;6026;48.784;9.198;2023-06-10T09:57:23;31.30;99.90
11934;DHT22;6026;48.784;9.198;2023-06-10T09:59:53;31.20;99.90
11934;DHT22;6026;48.784;9.198;2023-06-10T10:02:19;31.10;99.90
11934;DHT22;6026;48.784;9.198;2023-06-10T10:04:45;30.90;99.90
11934;DHT22;6026;48.784;9.198;2023-06-10T10:07:11;30.40;99.90
11934;DHT22;6026;48.784;9.198;2023-06-10T10:09:38;30.10;99.90
11934;DHT22;6026;48.784;9.198;2023-06-10T10:12:10;30.10;99.90
11934;DHT22;6026;48.784;9.198;2023-06-10T10:14:38;30.00;99.90
11934;DHT22;6026;48.784;9.198;2023-06-10T10:17:14;30.10;99.90
11934;DHT22;6026;48.784;9.198;2023-06-10T10:19:47;30.20;99.90
11934;DHT22;6026;48.784;9.198;2023-06-10T10:22:27;30.40;99.90
11934;DHT22;6026;48.784;9.198;2023-06-10T10:25:01;30.70;99.90
11934;DHT22;6026;48.784;9.198;2023-06-10T10:27:30;30.90;99.90
11934;DHT22;6026;48.784;9.198;2023-06-10T10:29:58;30.90;99.90
11934;DHT22;6026;48.784;9.198;2023-06-10T10:32:32;30.80;99.90
11934;DHT22;6026;48.784;9.198;2023-06-10T10:35:15;30.90;99.90
11934;DHT22;6026;48.784;9.198;2023-06-10T10:37:42;31.00;99.90
11934;DHT22;6026;48.784;9.198;2023-06-10T10:40:08;31.20;99.90
11934;DHT22;6026;48.784;9.198;2023-06-10T10:42:35;30.80;99.90
11934;DHT22;6026;48.784;9.198;2023-06-10T10:45:02;31.10;99.90
11934;DHT22;6026;48.784;9.198;2023-06-10T10:47:28;31.40;99.90
11934;DHT22;6026;48.784;9.198;2023-06-10T10:49:56;31.50;99.90
11934;DHT22;6026;48.784;9.198;2023-06-10T10:52:25;31.80;99.90
11934;DHT22;6026;48.784;9.198;2023-06-10T10:54:53;31.70;99.90
11934;DHT22;6026;48.784;9.198;2023-06-10T10:57:22;32.10;99.90
11934;DHT22;6026;48.784;9.198;2023-06-10T11:02:18;32.40;99.90
11934;DHT22;6026;48.784;9.198;2023-06-10T11:04:47;32.70;99.90
11934;DHT22;6026;48.784;9.198;2023-06-10T11:07:13;32.80;99.90
11934;DHT22;6026;48.784;9.198;2023-06-10T11:12:23;32.80;99.90
11934;DHT22;6026;48.784;9.198;2023-06-10T11:14:55;32.50;99.90
11934;DHT22;6026;48.784;9.198;2023-06-10T11:17:21;32.30;99.90
11934;DHT22;6026;48.784;9.198;2023-06-10T11:19:47;32.10;99.90
11934;DHT22;6026;48.784;9.198;2023-06-10T11:22:17;32.10;99.90
11934;DHT22;6026;48.784;9.198;2023-06-10T11:24:48;32.20;99.90
11934;DHT22;6026;48.784;9.198;2023-06-10T11:27:24;32.30;99.90
11934;DHT22;6026;48.784;9.198;2023-06-10T11:32:34;32.80;99.90
11934;DHT22;6026;48.784;9.198;2023-06-10T11:35:03;32.90;99.70
11934;DHT22;6026;48.784;9.198;2023-06-10T11:37:29;32.80;99.90
11934;DHT22;6026;48.784;9.198;2023-06-10T11:39:55;32.80;99.60
11934;DHT22;6026;48.784;9.198;2023-06-10T11:42:22;32.60;99.90
11934;DHT22;6026;48.784;9.198;2023-06-10T11:44:52;32.60;99.90
11934;DHT22;6026;48.784;9.198;2023-06-10T11:47:18;32.60;99.90
11934;DHT22;6026;48.784;9.198;2023-06-10T11:49:44;32.60;99.90
11934;DHT22;6026;48.784;9.198;2023-06-10T11:52:10;32.50;99.90
11934;DHT22;6026;48.784;9.198;2023-06-10T11:54:37;32.20;99.90
11934;DHT22;6026;48.784;9.198;2023-06-10T11:57:02;32.30;99.90
11934;DHT22;6026;48.784;9.198;2023-06-10T11:59:34;32.40;99.80
11934;DHT22;6026;48.784;9.198;2023-06-10T12:02:00;32.30;99.90
11934;DHT22;6026;48.784;9.198;2023-06-10T12:04:25;32.30;99.70
11934;DHT22;6026;48.784;9.198;2023-06-10T12:06:55;32.20;99.90
11934;DHT22;6026;48.784;9.198;2023-06-10T12:09:28;32.20;99.80
11934;DHT22;6026;48.784;9.198;2023-06-10T12:11:58;32.20;99.20
11934;DHT22;6026;48.784;9.198;2023-06-10T12:19:55;31.70;99.60
11934;DHT22;6026;48.784;9.198;2023-06-10T12:22:20;31.50;99.90
11934;DHT22;6026;48.784;9.198;2023-06-10T12:24:58;31.30;99.90
11934;DHT22;6026;48.784;9.198;2023-06-10T12:27:29;31.10;99.90
11934;DHT22;6026;48.784;9.198;2023-06-10T12:29:55;31.20;99.40
11934;DHT22;6026;48.784;9.198;2023-06-10T12:32:41;31.30;99.30
11934;DHT22;6026;48.784;9.198;2023-06-10T12:35:08;31.40;99.30
11934;DHT22;6026;48.784;9.198;2023-06-10T12:37:34;31.30;99.30
11934;DHT22;6026;48.784;9.198;2023-06-10T12:40:04;31.00;99.40
11934;DHT22;6026;48.784;9.198;2023-06-10T12:42:31;30.70;99.50
11934;DHT22;6026;48.784;9.198;2023-06-10T12:44:58;30.60;99.90
11934;DHT22;6026;48.784;9.198;2023-06-10T12:47:31;30.30;99.90
11934;DHT22;6026;48.784;9.198;2023-06-10T12:49:58;30.30;99.90
11934;DHT22;6026;48.784;9.198;2023-06-10T12:52:25;30.40;99.90
11934;DHT22;6026;48.784;9.198;2023-06-10T12:54:50;30.60;99.90
11934;DHT22;6026;48.784;9.198;2023-06-10T12:57:17;30.90;99.90
11934;DHT22;6026;48.784;9.198;2023-06-10T12:59:42;31.50;99.90
11934;DHT22;6026;48.784;9.198;2023-06-10T13:02:15;31.70;99.70
11934;DHT22;6026;48.784;9.198;2023-06-10T13:04:41;31.60;98.70
11934;DHT22;6026;48.784;9.198;2023-06-10T13:07:07;31.40;99.00
11934;DHT22;6026;48.784;9.198;2023-06-10T13:09:33;31.40;99.90
11934;DHT22;6026;48.784;9.198;2023-06-10T13:11:58;31.00;99.10
11934;DHT22;6026;48.784;9.198;2023-06-10T13:14:25;30.90;99.60
11934;DHT22;6026;48.784;9.198;2023-06-10T13:16:50;30.70;99.50
11934;DHT22;6026;48.784;9.198;2023-06-10T13:19:16;30.90;99.90
11934;DHT22;6026;48.784;9.198;2023-06-10T13:21:41;30.90;99.90
11934;DHT22;6026;48.784;9.198;2023-06-10T13:24:07;31.00;99.40
11934;DHT22;6026;48.784;9.198;2023-06-10T13:26:33;31.20;99.90
11934;DHT22;6026;48.784;9.198;2023-06-10T13:28:58;31.40;99.60
11934;DHT22;6026;48.784;9.198;2023-06-10T13:31:24;31.60;99.30
11934;DHT22;6026;48.784;9.198;2023-06-10T13:33:49;31.80;99.20
11934;DHT22;6026;48.784;9.198;2023-06-10T13:36:15;31.90;99.10
11934;DHT22;6026;48.784;9.198;2023-06-10T13:38:41;32.20;98.70
11934;DHT22;6026;48.784;9.198;2023-06-10T13:41:06;32.40;98.90
11934;DHT22;6026;48.784;9.198;2023-06-10T13:43:32;32.40;97.90
11934;DHT22;6026;48.784;9.198;2023-06-10T13:45:57;32.30;97.90
11934;DHT22;6026;48.784;9.198;2023-06-10T13:48:23;32.00;97.50
11934;DHT22;6026;48.784;9.198;2023-06-10T13:50:49;31.80;97.40
11934;DHT22;6026;48.784;9.198;2023-06-10T13:53:15;31.50;97.90
11934;DHT22;6026;48.784;9.198;2023-06-10T13:55:40;31.20;98.00
11934;DHT22;6026;48.784;9.198;2023-06-10T13:58:06;30.90;98.00
11934;DHT22;6026;48.784;9.198;2023-06-10T14:00:31;30.70;98.30
11934;DHT22;6026;48.784;9.198;2023-06-10T14:02:57;30.40;98.80
11934;DHT22;6026;48.784;9.198;2023-06-10T14:05:23;30.30;98.70
11934;DHT22;6026;48.784;9.198;2023-06-10T14:07:48;30.20;98.80
11934;DHT22;6026;48.784;9.198;2023-06-10T14:10:14;30.30;99.10
11934;DHT22;6026;48.784;9.198;2023-06-10T14:12:39;30.40;99.60
11934;DHT22;6026;48.784;9.198;2023-06-10T14:15:05;30.50;99.90
11934;DHT22;6026;48.784;9.198;2023-06-10T14:17:31;30.70;99.70
11934;DHT22;6026;48.784;9.198;2023-06-10T14:19:57;30.90;99.40
11934;DHT22;6026;48.784;9.198;2023-06-10T14:22:22;30.90;99.30
11934;DHT22;6026;48.784;9.198;2023-06-10T14:24:48;30.90;99.10
11934;DHT22;6026;48.784;9.198;2023-06-10T14:27:13;30.90;98.70
11934;DHT22;6026;48.784;9.198;2023-06-10T14:29:39;30.60;98.50
11934;DHT22;6026;48.784;9.198;2023-06-10T14:32:06;30.30;98.60
11934;DHT22;6026;48.784;9.198;2023-06-10T14:34:32;30.10;98.80
11934;DHT22;6026;48.784;9.198;2023-06-10T14:36:59;30.10;99.80
11934;DHT22;6026;48.784;9.198;2023-06-10T14:39:25;30.00;99.50
11934;DHT22;6026;48.784;9.198;2023-06-10T14:41:51;30.20;99.90
11934;DHT22;6026;48.784;9.198;2023-06-10T14:44:18;30.40;99.90
11934;DHT22;6026;48.784;9.198;2023-06-10T14:46:44;30.50;99.30
11934;DHT22;6026;48.784;9.198;2023-06-10T14:49:09;30.30;99.30
11934;DHT22;6026;48.784;9.198;2023-06-10T14:51:35;30.10;99.70
11934;DHT22;6026;48.784;9.198;2023-06-10T14:54:01;30.00;99.70
11934;DHT22;6026;48.784;9.198;2023-06-10T14:56:26;29.80;99.30
11934;DHT22;6026;48.784;9.198;2023-06-10T14:58:52;29.60;99.50
11934;DHT22;6026;48.784;9.198;2023-06-10T15:01:17;29.60;99.30
11934;DHT22;6026;48.784;9.198;2023-06-10T15:03:44;29.50;99.70
11934;DHT22;6026;48.784;9.198;2023-06-10T15:06:09;29.50;99.90
11934;DHT22;6026;48.784;9.198;2023-06-10T15:08:35;29.30;99.90
11934;DHT22;6026;48.784;9.198;2023-06-10T15:11:01;29.40;99.90
11934;DHT22;6026;48.784;9.198;2023-06-10T15:13:27;29.50;99.90
11934;DHT22;6026;48.784;9.198;2023-06-10T15:15:53;29.60;99.90
11934;DHT22;6026;48.784;9.198;2023-06-10T15:18:18;29.50;99.90
11934;DHT22;6026;48.784;9.198;2023-06-10T15:20:44;29.60;99.90
11934;DHT22;6026;48.784;9.198;2023-06-10T15:23:10;29.70;99.90
11934;DHT22;6026;48.784;9.198;2023-06-10T15:25:35;29.70;99.90
11934;DHT22;6026;48.784;9.198;2023-06-10T15:28:01;29.80;99.90
11934;DHT22;6026;48.784;9.198;2023-06-10T15:30:26;29.80;99.90
11934;DHT22;6026;48.784;9.198;2023-06-10T15:32:52;29.80;99.60
11934;DHT22;6026;48.784;9.198;2023-06-10T15:35:18;29.70;99.30
11934;DHT22;6026;48.784;9.198;2023-06-10T15:37:43;29.70;99.90
11934;DHT22;6026;48.784;9.198;2023-06-10T15:40:09;29.70;99.30
11934;DHT22;6026;48.784;9.198;2023-06-10T15:42:35;29.60;99.60
11934;DHT22;6026;48.784;9.198;2023-06-10T15:45:00;29.70;99.90
11934;DHT22;6026;48.784;9.198;2023-06-10T15:47:26;29.60;99.50
11934;DHT22;6026;48.784;9.198;2023-06-10T15:49:52;29.60;99.90
11934;DHT22;6026;48.784;9.198;2023-06-10T15:52:17;29.60;99.70
11934;DHT22;6026;48.784;9.198;2023-06-10T15:54:43;29.30;99.70
11934;DHT22;6026;48.784;9.198;2023-06-10T15:57:08;29.30;99.90
11934;DHT22;6026;48.784;9.198;2023-06-10T15:59:34;29.30;99.20
11934;DHT22;6026;48.784;9.198;2023-06-10T16:02:00;29.30;98.90